首页
METAR-TAF:

METAR-TAF

机场 :

卡斯尔加, 不列颠哥伦比亚, 加拿大

纬度: 49-18N, 经度: 117-38W, 海拔: 495米

当前天气观测

该预报发布于53分钟前的17:00 UTC
风速4节,风向西南
温度 24°C
湿度 31%
气压 1015 hPa
能見度: 19.3公里
散云层高于4000英尺

METAR: CYCG 241700Z 23004KT 12SM SCT040 24/06 A2996 RMK FU4 FU SLP139 DENSITY ALT 3000FT

时间: 10:53 (17:53 UTC)

预报

该预报发布于3小时和13分钟前的14:40 UTC
预报有效从24日的 15点(UTC)到 25日的 03点(UTC)
风速3节,风向多变
能見度: 10公里
散云层高于6000英尺
短暂存在
从 24日的 15点(UTC)到 25日的 03点(UTC)
能見度: 4.8公里
多云层高于5000英尺

TAF: CYCG 241440Z 2415/2503 VRB03KT P6SM SCT060 TEMPO 2415/2503 3SM FU BKN050 RMK NXT FCST BY 241900Z

超过4000个机场的气象观测和天气预报(METAR&TAF报告)。

可查询的气象台以黄色和红色小点在地图上表示。

将鼠标移到小点上方,可查看气象台名称。

然后点击查看天气观测和预报。

如需切换地图:点击带黑十字的绿色按钮放大地图;点击带横线的绿色按钮缩小地图;或者点击绿色箭头查看邻近地区的地图。


METAR-TAF: